Terminal Aerodrome Forecast
Issued by NWS Glasgow, MT

Home | Current Version | Previous Version | Text Only | Print | Product List | Glossary On
Versions: 1 2 3 4 5 6 7 8 9 10 11 12 13 14
000
FTUS45 KGGW 251700 RRA
TAFGGW
TAF
KGGW 251741Z 2518/2618 26020G28KT P6SM SKC
     FM260600 29010KT P6SM FEW090
     FM261500 29018KT P6SM FEW050=

USA.gov is the U.S. government's official web portal to all federal, state and local government web resources and services.